Time;durP1;ratioP1;P1;durP2;ratioP2;P2;SDS_P1;SDS_P2;PMS_P1;PMS_P2;Temp;Humidity;BMP_temperature;BMP_pressure;BME280_temperature;BME280_humidity;BME280_pressure;Samples;Min_cycle;Max_cycle;Signal;HPM_P1;HPM_P2
2021/12/01 14:33:24;;;;;;;;;;;1.80;99.90;;;;;;5071758;28;19926;-92
2021/12/01 14:35:59;;;;;;;;;;;1.80;99.90;;;;;;5070692;28;20007;-95
2021/12/01 14:38:24;;;;;;;;;;;1.80;99.90;;;;;;5070295;28;19959;-91
2021/12/01 14:40:54;;;;;;;;;;;1.90;99.90;;;;;;5069926;28;19948;-90
2021/12/01 14:43:27;;;;;;;;;;;2.00;99.90;;;;;;5070016;28;20391;-91
2021/12/01 14:45:52;;;;;;;;;;;2.10;99.90;;;;;;5070214;28;19909;-91
2021/12/01 14:48:20;;;;;;;;;;;2.20;99.90;;;;;;5070002;28;20319;-91
2021/12/01 14:50:53;;;;;;;;;;;2.20;99.90;;;;;;5069880;28;19944;-91
2021/12/01 14:53:19;;;;;;;;;;;2.30;99.90;;;;;;5108198;28;19912;-90
2021/12/01 14:55:47;;;;;;;;;;;2.40;99.90;;;;;;5075847;28;19913;-90
2021/12/01 14:58:14;;;;;;;;;;;2.40;99.90;;;;;;5103495;27;19909;-91
2021/12/01 15:00:41;;;;;;;;;;;2.40;99.90;;;;;;5103635;28;19908;-92
2021/12/01 15:03:07;;;;;;;;;;;2.50;99.90;;;;;;5103449;27;19924;-93
2021/12/01 15:05:43;;;;;;;;;;;2.50;99.90;;;;;;5098901;28;19920;-90
2021/12/01 15:08:10;;;;;;;;;;;2.50;99.90;;;;;;5083129;28;20400;-91
2021/12/01 15:10:46;;;;;;;;;;;2.60;99.90;;;;;;5054519;28;19931;-91
2021/12/01 15:13:22;;;;;;;;;;;2.50;99.90;;;;;;5099991;28;19960;-92
2021/12/01 15:15:51;;;;;;;;;;;2.50;99.90;;;;;;5091201;27;19916;-91
2021/12/01 15:18:23;;;;;;;;;;;2.50;99.90;;;;;;5086349;28;19920;-91
2021/12/01 15:21:10;;;;;;;;;;;2.50;99.90;;;;;;5049469;28;20254;-90
2021/12/01 15:23:56;;;;;;;;;;;2.40;99.90;;;;;;5049428;28;19909;-91
2021/12/01 15:26:21;;;;;;;;;;;2.40;99.90;;;;;;5050830;28;19923;-91
2021/12/01 15:28:49;;;;;;;;;;;2.40;99.90;;;;;;5091521;28;20444;-91
2021/12/01 15:31:16;;;;;;;;;;;2.30;99.90;;;;;;5100752;27;19933;-91
2021/12/01 15:33:42;;;;;;;;;;;2.30;99.90;;;;;;5065105;28;19958;-90
2021/12/01 15:36:08;;;;;;;;;;;2.30;99.90;;;;;;5089646;28;20336;-89
2021/12/01 15:38:34;;;;;;;;;;;2.30;99.90;;;;;;5068561;28;19923;-90
2021/12/01 15:40:59;;;;;;;;;;;2.20;99.90;;;;;;5102835;28;19908;-91
2021/12/01 15:43:25;;;;;;;;;;;2.30;99.90;;;;;;5083328;27;19913;-90
2021/12/01 15:45:51;;;;;;;;;;;2.20;99.90;;;;;;5049505;28;19917;-92
2021/12/01 15:48:16;;;;;;;;;;;2.30;99.90;;;;;;5045960;28;19909;-92
2021/12/01 15:50:43;;;;;;;;;;;2.30;99.90;;;;;;5046180;28;20354;-91
2021/12/01 15:53:09;;;;;;;;;;;2.30;99.90;;;;;;5052466;28;19913;-91
2021/12/01 15:57:08;;;;;;;;;;;2.30;99.90;;;;;;5115905;27;19949;-90
2021/12/01 15:59:34;;;;;;;;;;;2.30;99.90;;;;;;5132532;28;19994;-90
2021/12/01 16:02:00;;;;;;;;;;;2.30;99.90;;;;;;5131218;28;19911;-92
2021/12/01 16:04:25;;;;;;;;;;;2.30;99.90;;;;;;5109556;28;19954;-91
2021/12/01 16:06:51;;;;;;;;;;;2.30;99.90;;;;;;5099354;28;20325;-91
2021/12/01 16:09:18;;;;;;;;;;;2.30;99.90;;;;;;5107023;28;19973;-91
2021/12/01 16:13:11;;;;;;;;;;;2.20;99.90;;;;;;5050592;28;19917;-91
2021/12/01 16:15:38;;;;;;;;;;;2.20;99.90;;;;;;5056207;28;19921;-89
2021/12/01 16:18:04;;;;;;;;;;;2.30;99.90;;;;;;5049658;28;19913;-89
2021/12/01 16:20:30;;;;;;;;;;;2.20;99.90;;;;;;5048573;28;20297;-90
2021/12/01 16:22:55;;;;;;;;;;;2.20;99.90;;;;;;5050887;28;19917;-90
2021/12/01 16:25:22;;;;;;;;;;;2.20;99.90;;;;;;5050972;28;19920;-92
2021/12/01 16:27:48;;;;;;;;;;;2.10;99.90;;;;;;5056435;28;19974;-91
2021/12/01 16:30:18;;;;;;;;;;;2.10;99.90;;;;;;5046565;28;20323;-89
2021/12/01 16:32:49;;;;;;;;;;;2.10;99.90;;;;;;5038512;28;19917;-90
2021/12/01 16:35:20;;;;;;;;;;;2.10;99.90;;;;;;5064346;28;20257;-91
2021/12/01 16:37:46;;;;;;;;;;;2.10;99.90;;;;;;5049459;28;20414;-92
2021/12/01 16:40:13;;;;;;;;;;;2.00;99.90;;;;;;5050897;28;19912;-90
2021/12/01 16:42:39;;;;;;;;;;;2.00;99.90;;;;;;5050003;28;19916;-90
2021/12/01 16:45:05;;;;;;;;;;;1.90;99.90;;;;;;5044018;28;19919;-89
2021/12/01 16:47:31;;;;;;;;;;;1.90;99.90;;;;;;5036074;28;19913;-91
2021/12/01 16:49:58;;;;;;;;;;;1.90;99.90;;;;;;5048870;28;19920;-90
2021/12/01 16:52:26;;;;;;;;;;;1.80;99.90;;;;;;5050419;28;19917;-91
2021/12/01 16:54:52;;;;;;;;;;;1.70;99.90;;;;;;5048825;28;19964;-90
2021/12/01 16:57:17;;;;;;;;;;;1.70;99.90;;;;;;5048271;28;19975;-92
2021/12/01 16:59:44;;;;;;;;;;;1.60;99.90;;;;;;5049040;28;20004;-90
2021/12/01 17:02:10;;;;;;;;;;;1.50;99.90;;;;;;5047650;28;19949;-91
2021/12/01 17:04:38;;;;;;;;;;;1.40;99.90;;;;;;5049065;28;19920;-90
2021/12/01 17:07:13;;;;;;;;;;;1.30;99.90;;;;;;5049160;28;19913;-90
2021/12/01 17:09:39;;;;;;;;;;;1.30;99.90;;;;;;5048196;28;19952;-91
2021/12/01 17:12:05;;;;;;;;;;;1.20;99.90;;;;;;5048053;28;19982;-90
2021/12/01 17:14:31;;;;;;;;;;;1.10;99.90;;;;;;5045468;28;20317;-92
2021/12/01 17:16:57;;;;;;;;;;;1.10;99.90;;;;;;5062336;28;19913;-90
2021/12/01 17:19:25;;;;;;;;;;;1.10;99.90;;;;;;5048048;28;19923;-90
2021/12/01 17:21:52;;;;;;;;;;;1.10;99.90;;;;;;5048056;28;19913;-89
2021/12/01 17:24:18;;;;;;;;;;;1.10;99.90;;;;;;5037732;28;19913;-90
2021/12/01 17:26:43;;;;;;;;;;;1.00;99.90;;;;;;5033488;28;20378;-91
2021/12/01 17:29:09;;;;;;;;;;;1.00;99.90;;;;;;5044329;28;19921;-90
2021/12/01 17:31:38;;;;;;;;;;;0.90;99.90;;;;;;5034667;28;19913;-91
2021/12/01 17:34:04;;;;;;;;;;;0.90;99.90;;;;;;5035858;28;19913;-90
2021/12/01 17:36:29;;;;;;;;;;;0.80;99.90;;;;;;5034192;28;19920;-90
2021/12/01 17:38:55;;;;;;;;;;;0.80;99.90;;;;;;5028772;28;20000;-90
2021/12/01 17:41:21;;;;;;;;;;;0.80;99.90;;;;;;5016383;28;19909;-89
2021/12/01 17:43:47;;;;;;;;;;;0.70;99.90;;;;;;5034314;28;19913;-90
2021/12/01 17:46:16;;;;;;;;;;;0.60;99.90;;;;;;5034807;28;20374;-91
2021/12/01 17:48:44;;;;;;;;;;;0.60;99.90;;;;;;5036087;28;19913;-89
2021/12/01 17:51:09;;;;;;;;;;;0.50;99.90;;;;;;5031882;28;19921;-90
2021/12/01 17:53:35;;;;;;;;;;;0.50;99.90;;;;;;5036484;28;19917;-91
2021/12/01 17:56:01;;;;;;;;;;;0.40;99.90;;;;;;5037656;28;19928;-92
2021/12/01 17:58:26;;;;;;;;;;;0.40;99.90;;;;;;5038190;28;19913;-89
2021/12/01 18:00:52;;;;;;;;;;;0.30;99.90;;;;;;5029526;28;19917;-89
2021/12/01 18:03:17;;;;;;;;;;;0.30;99.90;;;;;;5016536;28;19910;-91
2021/12/01 18:05:44;;;;;;;;;;;0.30;99.90;;;;;;5033205;28;19963;-90
2021/12/01 18:08:09;;;;;;;;;;;0.30;99.90;;;;;;5034731;28;19913;-90
2021/12/01 18:10:37;;;;;;;;;;;0.20;99.90;;;;;;5029784;28;20277;-89
2021/12/01 18:13:03;;;;;;;;;;;0.20;99.90;;;;;;5034250;28;19936;-90
2021/12/01 18:15:28;;;;;;;;;;;0.20;99.90;;;;;;5035101;28;19913;-91
2021/12/01 18:17:54;;;;;;;;;;;0.10;99.90;;;;;;5051900;28;19909;-89
2021/12/01 18:20:19;;;;;;;;;;;0.10;99.90;;;;;;5034853;28;19965;-89
2021/12/01 18:22:46;;;;;;;;;;;0.00;99.90;;;;;;5035189;28;20353;-90
2021/12/01 18:25:12;;;;;;;;;;;0.00;99.90;;;;;;5024642;28;19960;-91
2021/12/01 18:27:38;;;;;;;;;;;0.00;99.90;;;;;;5051217;28;19948;-90
2021/12/01 18:30:04;;;;;;;;;;;-0.10;99.90;;;;;;5035746;28;20012;-89
2021/12/01 18:32:29;;;;;;;;;;;-0.10;99.90;;;;;;5033885;28;20000;-91
2021/12/01 18:34:55;;;;;;;;;;;-0.20;99.90;;;;;;5024691;28;19919;-90
2021/12/01 18:37:20;;;;;;;;;;;-0.20;99.90;;;;;;5033476;28;20411;-90
2021/12/01 18:39:46;;;;;;;;;;;-0.20;99.90;;;;;;5032454;28;19913;-90
2021/12/01 18:42:12;;;;;;;;;;;-0.30;99.90;;;;;;5033683;28;19917;-91
2021/12/01 18:44:40;;;;;;;;;;;-0.30;99.90;;;;;;5033969;28;20340;-91
2021/12/01 18:47:07;;;;;;;;;;;-0.40;99.90;;;;;;5034183;28;20023;-90
2021/12/01 18:49:32;;;;;;;;;;;-0.50;99.90;;;;;;5033738;28;20293;-91
2021/12/01 18:51:58;;;;;;;;;;;-0.50;99.90;;;;;;5033688;28;19917;-90
2021/12/01 18:54:24;;;;;;;;;;;-0.60;99.90;;;;;;5048494;28;19913;-91
2021/12/01 18:56:49;;;;;;;;;;;-0.60;99.90;;;;;;5033117;28;19920;-90
2021/12/01 18:59:15;;;;;;;;;;;-0.70;99.90;;;;;;5033862;28;20456;-92
2021/12/01 19:01:40;;;;;;;;;;;-0.70;99.90;;;;;;5032746;28;20000;-91
2021/12/01 19:04:06;;;;;;;;;;;-0.80;99.90;;;;;;5033592;28;19992;-91
2021/12/01 19:06:31;;;;;;;;;;;-0.80;99.90;;;;;;5026403;28;19917;-92
2021/12/01 19:08:57;;;;;;;;;;;-0.90;99.90;;;;;;5032664;28;19991;-91
2021/12/01 19:11:23;;;;;;;;;;;-1.00;99.90;;;;;;5033080;28;19971;-92
2021/12/01 19:13:49;;;;;;;;;;;-1.00;99.90;;;;;;5033361;28;19913;-90
2021/12/01 19:16:14;;;;;;;;;;;-1.10;99.90;;;;;;5033579;28;19910;-91
2021/12/01 19:18:40;;;;;;;;;;;-1.20;99.90;;;;;;5032993;28;19970;-93
2021/12/01 19:21:07;;;;;;;;;;;-1.20;99.90;;;;;;5033425;28;19909;-91
2021/12/01 19:23:35;;;;;;;;;;;-1.20;99.90;;;;;;5033331;28;19964;-90
2021/12/01 19:26:01;;;;;;;;;;;-1.20;99.90;;;;;;5033558;28;19916;-92
2021/12/01 19:28:27;;;;;;;;;;;-1.20;99.90;;;;;;5032672;28;19913;-92
2021/12/01 19:30:53;;;;;;;;;;;-1.30;99.90;;;;;;5032963;28;19920;-92
2021/12/01 19:33:18;;;;;;;;;;;-1.30;99.90;;;;;;5032779;28;19956;-93
2021/12/01 19:35:44;;;;;;;;;;;-1.40;99.90;;;;;;5032487;28;20434;-91
2021/12/01 19:38:10;;;;;;;;;;;-1.40;99.90;;;;;;5033048;28;19913;-91
2021/12/01 19:40:35;;;;;;;;;;;-1.50;99.90;;;;;;5032302;28;19996;-91
2021/12/01 19:43:03;;;;;;;;;;;-1.50;99.90;;;;;;5034159;28;19921;-92
2021/12/01 19:45:29;;;;;;;;;;;-1.60;99.90;;;;;;5032209;28;19995;-90
2021/12/01 19:47:55;;;;;;;;;;;-1.70;99.90;;;;;;5033069;28;19998;-94
2021/12/01 19:52:05;;;;;;;;;;;-1.80;99.90;;;;;;4946166;28;2643462;-94
2021/12/01 19:54:31;;;;;;;;;;;-1.80;99.90;;;;;;5054093;28;19913;-93
